Time;durP1;ratioP1;P1;durP2;ratioP2;P2;SDS_P1;SDS_P2;PMS_P1;PMS_P2;Temp;Humidity;BMP_temperature;BMP_pressure;BME280_temperature;BME280_humidity;BME280_pressure;Samples;Min_cycle;Max_cycle;Signal;HPM_P1;HPM_P2
2023/12/29 00:02:06;;;;;;;30.48;8.02;;;;;;;;;;6104565;23;20028;-85
2023/12/29 00:04:34;;;;;;;24.58;7.78;;;;;;;;;;6105338;23;20040;-85
2023/12/29 00:07:01;;;;;;;26.98;7.68;;;;;;;;;;6105050;23;20116;-85
2023/12/29 00:09:28;;;;;;;26.90;7.40;;;;;;;;;;6105199;23;20017;-85
2023/12/29 00:11:54;;;;;;;22.40;7.03;;;;;;;;;;6105218;23;20072;-85
2023/12/29 00:14:20;;;;;;;22.70;6.18;;;;;;;;;;6105277;23;20059;-85
2023/12/29 00:16:46;;;;;;;28.45;7.50;;;;;;;;;;6105079;23;20443;-85
2023/12/29 00:19:13;;;;;;;28.15;6.10;;;;;;;;;;6105324;23;20018;-84
2023/12/29 00:21:45;;;;;;;27.88;6.90;;;;;;;;;;6105064;23;20017;-85
2023/12/29 00:24:11;;;;;;;23.27;5.43;;;;;;;;;;6105285;23;20101;-85
2023/12/29 00:26:37;;;;;;;26.13;5.85;;;;;;;;;;6106403;23;20018;-85
2023/12/29 00:29:06;;;;;;;20.17;5.18;;;;;;;;;;6108056;23;20469;-85
2023/12/29 00:31:32;;;;;;;25.38;5.95;;;;;;;;;;6106572;23;20018;-85
2023/12/29 00:33:58;;;;;;;20.38;5.30;;;;;;;;;;6104884;23;20108;-85
2023/12/29 00:36:25;;;;;;;23.27;5.00;;;;;;;;;;6104793;23;20026;-85
2023/12/29 00:38:51;;;;;;;26.48;5.05;;;;;;;;;;6104863;23;20522;-84
2023/12/29 00:41:17;;;;;;;19.05;4.68;;;;;;;;;;6104684;23;20343;-84
2023/12/29 00:43:43;;;;;;;22.75;5.10;;;;;;;;;;6104809;23;20334;-85
2023/12/29 00:46:09;;;;;;;25.13;4.78;;;;;;;;;;6104684;23;20499;-85
2023/12/29 00:48:38;;;;;;;22.00;5.32;;;;;;;;;;6104762;23;20049;-85
2023/12/29 00:51:04;;;;;;;24.92;4.57;;;;;;;;;;6104859;23;20013;-85
2023/12/29 00:53:32;;;;;;;23.95;4.55;;;;;;;;;;6104666;23;20017;-84
2023/12/29 00:55:58;;;;;;;15.43;4.80;;;;;;;;;;6104700;23;20013;-85
2023/12/29 00:58:24;;;;;;;25.65;5.35;;;;;;;;;;6104972;23;20100;-85
2023/12/29 01:00:50;;;;;;;17.20;4.55;;;;;;;;;;6104551;23;20020;-85
2023/12/29 01:03:17;;;;;;;19.35;4.60;;;;;;;;;;6104083;23;20402;-85
2023/12/29 01:05:46;;;;;;;19.63;4.95;;;;;;;;;;6103989;23;20093;-85
2023/12/29 01:08:15;;;;;;;18.70;4.63;;;;;;;;;;6104615;23;20044;-85
2023/12/29 01:10:43;;;;;;;19.88;4.70;;;;;;;;;;6105122;23;20021;-85
2023/12/29 01:13:09;;;;;;;19.13;4.53;;;;;;;;;;6104821;23;20022;-84
2023/12/29 01:15:36;;;;;;;18.60;4.78;;;;;;;;;;6104538;23;20022;-85
2023/12/29 01:18:02;;;;;;;16.85;4.53;;;;;;;;;;6105094;23;20045;-84
2023/12/29 01:20:33;;;;;;;14.60;4.13;;;;;;;;;;6105828;23;20021;-85
2023/12/29 01:22:59;;;;;;;19.13;4.30;;;;;;;;;;6104649;23;20557;-85
2023/12/29 01:25:25;;;;;;;18.92;4.40;;;;;;;;;;6104757;23;20450;-85
2023/12/29 01:27:51;;;;;;;19.27;4.10;;;;;;;;;;6104585;23;20025;-85
2023/12/29 01:30:20;;;;;;;18.67;4.55;;;;;;;;;;6104714;23;20096;-84
2023/12/29 01:32:47;;;;;;;17.60;4.20;;;;;;;;;;6104425;23;20025;-85
2023/12/29 01:35:13;;;;;;;21.08;5.32;;;;;;;;;;6104959;23;20017;-85
2023/12/29 01:37:39;;;;;;;25.27;5.63;;;;;;;;;;6104539;23;20018;-85
2023/12/29 01:40:05;;;;;;;19.65;4.72;;;;;;;;;;6104789;23;20364;-85
2023/12/29 01:42:32;;;;;;;18.63;4.43;;;;;;;;;;6104658;23;20520;-85
2023/12/29 01:45:01;;;;;;;20.27;4.63;;;;;;;;;;6105166;23;20450;-85
2023/12/29 01:47:28;;;;;;;17.95;4.35;;;;;;;;;;6104337;23;20500;-85
2023/12/29 01:49:54;;;;;;;14.68;4.30;;;;;;;;;;6104471;23;20347;-86
2023/12/29 01:52:21;;;;;;;24.13;5.03;;;;;;;;;;6104616;23;20025;-84
2023/12/29 01:54:49;;;;;;;18.60;4.18;;;;;;;;;;6104574;23;20368;-85
2023/12/29 01:57:16;;;;;;;21.45;4.40;;;;;;;;;;6104208;23;20105;-85
2023/12/29 01:59:45;;;;;;;18.58;4.10;;;;;;;;;;6104428;23;20092;-85
2023/12/29 02:02:11;;;;;;;20.52;3.80;;;;;;;;;;6103954;23;20096;-84
2023/12/29 02:04:37;;;;;;;22.65;4.25;;;;;;;;;;6104476;23;20018;-84
2023/12/29 02:07:03;;;;;;;21.00;4.85;;;;;;;;;;6104271;23;20017;-85
2023/12/29 02:09:30;;;;;;;20.52;4.30;;;;;;;;;;6104572;23;20018;-85
2023/12/29 02:11:56;;;;;;;18.88;4.82;;;;;;;;;;6104321;23;20096;-85
2023/12/29 02:14:25;;;;;;;17.48;4.57;;;;;;;;;;6105601;23;20095;-85
2023/12/29 02:17:06;;;;;;;17.58;4.70;;;;;;;;;;6106294;23;20025;-85
2023/12/29 02:19:32;;;;;;;18.00;4.63;;;;;;;;;;6106032;23;20017;-84
2023/12/29 02:21:58;;;;;;;25.45;4.55;;;;;;;;;;6106370;23;20414;-84
2023/12/29 02:24:25;;;;;;;18.30;4.65;;;;;;;;;;6106142;23;20017;-85
2023/12/29 02:26:56;;;;;;;20.00;4.13;;;;;;;;;;6106158;23;20156;-85
2023/12/29 02:29:25;;;;;;;21.45;5.05;;;;;;;;;;6105419;23;20022;-85
2023/12/29 02:31:53;;;;;;;21.33;4.65;;;;;;;;;;6106163;23;20180;-85
2023/12/29 02:34:25;;;;;;;22.08;4.00;;;;;;;;;;6105537;23;20052;-84
2023/12/29 02:36:52;;;;;;;22.35;5.40;;;;;;;;;;6105534;23;20064;-84
2023/12/29 02:39:20;;;;;;;19.70;4.10;;;;;;;;;;6105993;23;20013;-85
2023/12/29 02:41:47;;;;;;;14.30;3.92;;;;;;;;;;6106008;23;20454;-84
2023/12/29 02:44:15;;;;;;;20.80;5.03;;;;;;;;;;6105771;23;20395;-84
2023/12/29 02:46:45;;;;;;;20.48;4.65;;;;;;;;;;6105764;23;20438;-84
2023/12/29 02:49:12;;;;;;;20.42;4.13;;;;;;;;;;6105855;23;20578;-83
2023/12/29 02:51:40;;;;;;;24.63;5.72;;;;;;;;;;6105472;23;20032;-84
2023/12/29 02:54:07;;;;;;;19.50;4.50;;;;;;;;;;6105797;23;20014;-84
2023/12/29 02:56:34;;;;;;;23.83;5.07;;;;;;;;;;6105654;23;20018;-84
2023/12/29 02:59:00;;;;;;;21.23;4.25;;;;;;;;;;6105844;23;20013;-84
2023/12/29 03:01:29;;;;;;;21.90;5.20;;;;;;;;;;6105512;23;20018;-85
2023/12/29 03:03:56;;;;;;;26.15;5.55;;;;;;;;;;6105353;23;20096;-84
2023/12/29 03:06:22;;;;;;;19.08;4.82;;;;;;;;;;6105177;23;20104;-84
2023/12/29 03:08:48;;;;;;;19.88;4.78;;;;;;;;;;6105987;23;20125;-85
2023/12/29 03:11:17;;;;;;;18.85;4.97;;;;;;;;;;6105784;23;20096;-85
2023/12/29 03:13:43;;;;;;;22.58;4.82;;;;;;;;;;6105722;23;20017;-84
2023/12/29 03:16:10;;;;;;;19.95;4.20;;;;;;;;;;6105509;23;20021;-85
2023/12/29 03:18:40;;;;;;;16.67;4.28;;;;;;;;;;6105646;23;20496;-85
2023/12/29 03:21:07;;;;;;;16.20;4.30;;;;;;;;;;6105494;23;20485;-84
2023/12/29 03:23:34;;;;;;;14.32;3.45;;;;;;;;;;6105485;23;20028;-84
2023/12/29 03:26:02;;;;;;;13.55;3.45;;;;;;;;;;6105255;23;20115;-85
2023/12/29 03:28:28;;;;;;;16.02;4.10;;;;;;;;;;6105435;23;20381;-84
2023/12/29 03:30:54;;;;;;;18.52;3.92;;;;;;;;;;6105436;23;20476;-85
2023/12/29 03:33:21;;;;;;;21.27;4.55;;;;;;;;;;6105359;23;20438;-85
2023/12/29 03:35:50;;;;;;;19.80;4.78;;;;;;;;;;6105482;23;20342;-84
2023/12/29 03:38:16;;;;;;;21.80;5.43;;;;;;;;;;6105620;23;20053;-85
2023/12/29 03:40:44;;;;;;;19.42;4.50;;;;;;;;;;6105601;23;20040;-85
2023/12/29 03:43:10;;;;;;;19.80;4.97;;;;;;;;;;6105608;23;20335;-85
2023/12/29 03:45:37;;;;;;;17.13;5.05;;;;;;;;;;6104924;23;20478;-85
2023/12/29 03:48:05;;;;;;;19.35;4.68;;;;;;;;;;6105042;23;20124;-84
2023/12/29 03:50:34;;;;;;;23.08;4.35;;;;;;;;;;6105188;23;20338;-84
2023/12/29 03:53:00;;;;;;;21.48;4.53;;;;;;;;;;6105236;23;20434;-85
2023/12/29 03:55:27;;;;;;;20.27;3.97;;;;;;;;;;6105234;23;20014;-85
2023/12/29 03:57:55;;;;;;;18.45;4.20;;;;;;;;;;6105201;23;20022;-84
2023/12/29 04:00:21;;;;;;;17.27;4.00;;;;;;;;;;6104881;23;20319;-84
2023/12/29 04:02:47;;;;;;;16.25;4.35;;;;;;;;;;6105192;23;20366;-85
2023/12/29 04:05:14;;;;;;;21.63;4.75;;;;;;;;;;6105049;23;20030;-85
2023/12/29 04:07:40;;;;;;;15.25;4.70;;;;;;;;;;6105152;23;20022;-84
2023/12/29 04:10:09;;;;;;;21.50;5.25;;;;;;;;;;6104928;23;20458;-85
2023/12/29 04:12:35;;;;;;;18.48;4.35;;;;;;;;;;6105029;23;20075;-84
2023/12/29 04:15:02;;;;;;;17.38;4.45;;;;;;;;;;6105243;23;20100;-84
2023/12/29 04:17:28;;;;;;;22.27;4.55;;;;;;;;;;6104733;23;20347;-84
2023/12/29 04:19:54;;;;;;;21.05;4.85;;;;;;;;;;6104938;23;20013;-84
2023/12/29 04:22:23;;;;;;;15.43;4.10;;;;;;;;;;6105250;23;20097;-85
2023/12/29 04:24:55;;;;;;;18.38;4.32;;;;;;;;;;6104971;23;20478;-85
2023/12/29 04:27:22;;;;;;;19.13;4.60;;;;;;;;;;6104749;23;20431;-84
2023/12/29 04:29:50;;;;;;;21.75;4.32;;;;;;;;;;6105019;23;20107;-85
2023/12/29 04:32:16;;;;;;;18.13;4.70;;;;;;;;;;6104870;23;20014;-84
2023/12/29 04:34:42;;;;;;;18.13;4.40;;;;;;;;;;6105178;23;20024;-84
2023/12/29 04:37:09;;;;;;;18.15;4.80;;;;;;;;;;6104863;23;20021;-85
2023/12/29 04:39:38;;;;;;;20.92;5.47;;;;;;;;;;6105449;23;20324;-85
2023/12/29 04:42:04;;;;;;;21.48;4.97;;;;;;;;;;6104747;23;20466;-84
2023/12/29 04:44:30;;;;;;;20.08;4.65;;;;;;;;;;6106035;23;20014;-85
2023/12/29 04:46:56;;;;;;;18.75;4.60;;;;;;;;;;6104456;23;20396;-84
2023/12/29 04:49:22;;;;;;;15.63;4.25;;;;;;;;;;6129694;23;20342;-84
2023/12/29 04:51:52;;;;;;;18.52;5.45;;;;;;;;;;6104709;23;20060;-85
2023/12/29 04:54:21;;;;;;;18.30;4.68;;;;;;;;;;6104932;23;20013;-84
2023/12/29 04:56:47;;;;;;;15.55;4.13;;;;;;;;;;6104430;23;20021;-85
2023/12/29 04:59:13;;;;;;;21.67;5.28;;;;;;;;;;6105775;23;20025;-85
2023/12/29 05:01:39;;;;;;;14.38;4.63;;;;;;;;;;6104624;23;20100;-85
2023/12/29 05:04:08;;;;;;;26.63;4.85;;;;;;;;;;6105214;23;20018;-85
2023/12/29 05:06:34;;;;;;;19.50;4.78;;;;;;;;;;6104742;23;20439;-85
2023/12/29 05:09:00;;;;;;;19.27;4.85;;;;;;;;;;6104867;23;20017;-84
2023/12/29 05:11:26;;;;;;;22.70;4.97;;;;;;;;;;6104825;23;20052;-85
2023/12/29 05:13:55;;;;;;;20.73;4.95;;;;;;;;;;6105041;23;20025;-85
2023/12/29 05:16:21;;;;;;;20.45;4.43;;;;;;;;;;6104696;23;20029;-84
2023/12/29 05:18:47;;;;;;;26.45;5.28;;;;;;;;;;6105811;23;20025;-84
2023/12/29 05:21:17;;;;;;;23.10;4.40;;;;;;;;;;6104776;23;20096;-85
2023/12/29 05:23:47;;;;;;;20.98;4.50;;;;;;;;;;6105117;23;20382;-84
2023/12/29 05:26:16;;;;;;;23.45;5.13;;;;;;;;;;6104584;23;20096;-85
2023/12/29 05:28:42;;;;;;;25.05;4.30;;;;;;;;;;6104399;23;20383;-85
2023/12/29 05:31:09;;;;;;;30.25;5.65;;;;;;;;;;6104438;23;20013;-85
2023/12/29 05:33:38;;;;;;;21.42;5.15;;;;;;;;;;6105153;23;20018;-84
2023/12/29 05:36:08;;;;;;;24.92;5.53;;;;;;;;;;6104473;23;20080;-85
2023/12/29 05:38:35;;;;;;;22.83;4.40;;;;;;;;;;6104702;23;20013;-85
2023/12/29 05:41:02;;;;;;;23.25;5.30;;;;;;;;;;6104634;23;20044;-84
2023/12/29 05:43:28;;;;;;;25.73;5.90;;;;;;;;;;6104607;23;20029;-84
2023/12/29 05:45:54;;;;;;;23.52;5.40;;;;;;;;;;6103922;23;20347;-85
2023/12/29 05:48:23;;;;;;;25.83;5.22;;;;;;;;;;6105269;23;20028;-85
2023/12/29 05:50:50;;;;;;;26.20;4.72;;;;;;;;;;6106371;23;20021;-84
2023/12/29 05:53:16;;;;;;;19.48;5.30;;;;;;;;;;6106567;23;20013;-84
2023/12/29 05:55:45;;;;;;;19.55;5.13;;;;;;;;;;6106698;23;20024;-84
2023/12/29 05:58:15;;;;;;;19.52;4.65;;;;;;;;;;6106104;23;20017;-85
2023/12/29 06:00:41;;;;;;;20.92;4.68;;;;;;;;;;6106527;23;20025;-85
2023/12/29 06:03:07;;;;;;;20.83;4.78;;;;;;;;;;6106521;23;20017;-85
2023/12/29 06:05:34;;;;;;;16.63;4.68;;;;;;;;;;6105856;23;20025;-85
2023/12/29 06:08:00;;;;;;;20.40;4.57;;;;;;;;;;6107036;23;20354;-85
2023/12/29 06:10:26;;;;;;;21.52;5.03;;;;;;;;;;6107081;23;20080;-84
2023/12/29 06:12:55;;;;;;;20.65;4.72;;;;;;;;;;6107423;23;20018;-84
2023/12/29 06:15:23;;;;;;;21.25;5.20;;;;;;;;;;6106452;23;20018;-85
2023/12/29 06:17:56;;;;;;;24.08;5.05;;;;;;;;;;6106226;23;20029;-84
2023/12/29 06:20:24;;;;;;;17.90;4.10;;;;;;;;;;6107136;23;20015;-85
2023/12/29 06:22:51;;;;;;;32.17;5.60;;;;;;;;;;6106667;23;20513;-85
2023/12/29 06:25:17;;;;;;;22.67;4.53;;;;;;;;;;6106686;23;20102;-84
2023/12/29 06:27:44;;;;;;;19.35;4.65;;;;;;;;;;6106539;23;20053;-84
2023/12/29 06:30:13;;;;;;;16.20;4.80;;;;;;;;;;6106329;23;20018;-85
2023/12/29 06:32:39;;;;;;;17.45;4.72;;;;;;;;;;6106636;23;20052;-84
2023/12/29 06:35:06;;;;;;;22.27;5.07;;;;;;;;;;6107174;23;20017;-84
2023/12/29 06:37:32;;;;;;;22.83;5.38;;;;;;;;;;6106953;23;20017;-85
2023/12/29 06:40:02;;;;;;;17.58;4.90;;;;;;;;;;6107395;23;20333;-84
2023/12/29 06:42:31;;;;;;;17.73;5.15;;;;;;;;;;6106611;23;20469;-85
2023/12/29 06:44:57;;;;;;;19.25;4.70;;;;;;;;;;6106613;23;20446;-85
2023/12/29 06:47:23;;;;;;;18.77;4.88;;;;;;;;;;6106517;23;20446;-85
2023/12/29 06:49:52;;;;;;;20.85;5.05;;;;;;;;;;6106764;23;20017;-84
2023/12/29 06:52:21;;;;;;;24.85;5.45;;;;;;;;;;6106313;23;20023;-84
2023/12/29 06:54:47;;;;;;;27.30;6.20;;;;;;;;;;6106673;23;20017;-85
2023/12/29 06:57:19;;;;;;;18.50;5.28;;;;;;;;;;6106913;23;20505;-86
2023/12/29 06:59:51;;;;;;;19.45;4.18;;;;;;;;;;6105654;23;20014;-86
2023/12/29 07:02:17;;;;;;;18.90;4.85;;;;;;;;;;6105921;23;20020;-85
2023/12/29 07:04:59;;;;;;;26.75;6.10;;;;;;;;;;6107395;23;20056;-87
2023/12/29 07:07:44;;;;;;;26.30;6.18;;;;;;;;;;6100577;23;20475;-87
2023/12/29 07:10:20;;;;;;;27.30;5.70;;;;;;;;;;6077127;23;20469;-87
2023/12/29 07:12:46;;;;;;;23.52;5.95;;;;;;;;;;6074966;23;20022;-86
2023/12/29 07:15:15;;;;;;;23.63;4.78;;;;;;;;;;6075185;23;20018;-86
2023/12/29 07:18:08;;;;;;;26.35;5.40;;;;;;;;;;6104236;23;20101;-87
2023/12/29 07:20:59;;;;;;;;;;;;;;;;;;;;;
2023/12/29 07:30:24;;;;;;;26.10;5.55;;;;;;;;;;6096043;23;20029;-86
2023/12/29 07:36:24;;;;;;;18.77;4.68;;;;;;;;;;6090978;23;20065;-87
2023/12/29 07:39:05;;;;;;;20.60;4.53;;;;;;;;;;6099965;23;20024;-87
2023/12/29 07:42:10;;;;;;;21.65;5.18;;;;;;;;;;6106488;23;20013;-87
2023/12/29 07:45:43;;;;;;;23.10;4.85;;;;;;;;;;6146141;23;20068;-86
2023/12/29 07:48:12;;;;;;;24.25;5.00;;;;;;;;;;6101876;23;20320;-85
2023/12/29 07:51:15;;;;;;;25.60;5.20;;;;;;;;;;6105695;23;20025;-85
2023/12/29 07:54:10;;;;;;;24.63;4.40;;;;;;;;;;6132296;23;20022;-85
2023/12/29 07:56:50;;;;;;;18.48;4.47;;;;;;;;;;6105537;23;20021;-85
2023/12/29 07:59:24;;;;;;;21.27;4.85;;;;;;;;;;6104253;23;20085;-85
2023/12/29 08:01:51;;;;;;;19.63;4.35;;;;;;;;;;6105184;23;20089;-86
2023/12/29 08:04:54;;;;;;;16.00;4.10;;;;;;;;;;6104954;23;20018;-85
2023/12/29 08:21:49;;;;;;;15.90;3.67;;;;;;;;;;5952809;24;20505;-84
2023/12/29 08:24:22;;;;;;;18.85;4.43;;;;;;;;;;5926952;24;20025;-86
2023/12/29 08:30:32;;;;;;;17.00;3.33;;;;;;;;;;6008609;23;20485;-86
2023/12/29 08:47:36;;;;;;;19.85;4.22;;;;;;;;;;5951084;24;20476;-85
2023/12/29 08:50:12;;;;;;;17.95;4.18;;;;;;;;;;5954263;24;20047;-85
2023/12/29 08:53:03;;;;;;;17.63;4.43;;;;;;;;;;6018654;23;20076;-87
2023/12/29 08:55:32;;;;;;;16.80;3.53;;;;;;;;;;6019319;23;20015;-86
2023/12/29 08:58:04;;;;;;;16.27;3.78;;;;;;;;;;6075277;23;20014;-86
2023/12/29 09:00:48;;;;;;;13.20;3.55;;;;;;;;;;6106629;23;20446;-87
2023/12/29 09:03:25;;;;;;;10.80;3.03;;;;;;;;;;6106423;23;20117;-86
2023/12/29 09:06:08;;;;;;;17.02;3.58;;;;;;;;;;6104769;23;20044;-85
2023/12/29 09:08:46;;;;;;;17.08;4.72;;;;;;;;;;6107675;23;20100;-86
2023/12/29 09:11:40;;;;;;;16.15;3.78;;;;;;;;;;6106486;23;20017;-86
2023/12/29 09:14:25;;;;;;;18.90;3.60;;;;;;;;;;6105950;23;20049;-86
2023/12/29 09:17:05;;;;;;;12.55;3.78;;;;;;;;;;6105856;23;20045;-87
2023/12/29 09:19:55;;;;;;;;;;;;;;;;;;;;;
2023/12/29 09:22:33;;;;;;;13.15;3.33;;;;;;;;;;6130011;23;20081;-87
2023/12/29 09:28:47;;;;;;;18.80;3.45;;;;;;;;;;6130613;23;20139;-87
2023/12/29 09:31:21;;;;;;;22.65;4.55;;;;;;;;;;6122182;23;20094;-85
2023/12/29 09:34:00;;;;;;;17.77;4.32;;;;;;;;;;6100182;23;20109;-86
2023/12/29 09:36:36;;;;;;;22.70;4.90;;;;;;;;;;6108638;23;20096;-85
2023/12/29 09:39:05;;;;;;;19.15;4.43;;;;;;;;;;6109611;23;20342;-87
2023/12/29 09:41:40;;;;;;;14.18;3.83;;;;;;;;;;6109651;23;20037;-88
2023/12/29 09:44:23;;;;;;;16.80;4.43;;;;;;;;;;6107165;23;20037;-87
2023/12/29 09:47:16;;;;;;;19.95;4.55;;;;;;;;;;6106396;23;20044;-87
2023/12/29 09:50:03;;;;;;;13.07;3.60;;;;;;;;;;6134192;23;20403;-86
2023/12/29 09:52:35;;;;;;;16.55;4.45;;;;;;;;;;6108189;23;20013;-86
2023/12/29 09:55:04;;;;;;;19.75;4.13;;;;;;;;;;6108210;23;20049;-88
2023/12/29 09:57:30;;;;;;;17.55;4.00;;;;;;;;;;6107710;23;20554;-86
2023/12/29 09:59:57;;;;;;;19.27;4.65;;;;;;;;;;6133607;23;20013;-86
2023/12/29 10:02:26;;;;;;;18.08;3.95;;;;;;;;;;6109766;23;20025;-87
2023/12/29 10:05:07;;;;;;;14.65;3.72;;;;;;;;;;6109437;23;20021;-87
2023/12/29 10:07:36;;;;;;;17.08;3.95;;;;;;;;;;6086182;23;20013;-86
2023/12/29 10:10:18;;;;;;;13.23;3.88;;;;;;;;;;6108196;23;20088;-87
2023/12/29 10:12:48;;;;;;;17.05;3.90;;;;;;;;;;6107652;23;20280;-86
2023/12/29 10:15:55;;;;;;;17.00;3.75;;;;;;;;;;6106255;23;20028;-87
2023/12/29 10:18:49;;;;;;;;;;;;;;;;;;;;;
2023/12/29 10:21:41;;;;;;;11.55;3.05;;;;;;;;;;6131032;23;20014;-87
2023/12/29 10:24:49;;;;;;;14.80;3.47;;;;;;;;;;6108741;23;20024;-87
2023/12/29 10:28:20;;;;;;;13.68;3.20;;;;;;;;;;6156296;23;20029;-86
2023/12/29 10:30:56;;;;;;;12.32;4.15;;;;;;;;;;6100536;23;20033;-87
2023/12/29 10:33:25;;;;;;;16.95;3.70;;;;;;;;;;6107113;23;20096;-86
2023/12/29 10:36:07;;;;;;;13.10;3.65;;;;;;;;;;6106855;23;20060;-87
2023/12/29 10:38:41;;;;;;;11.65;3.47;;;;;;;;;;6106653;23;20017;-85
2023/12/29 10:41:15;;;;;;;13.60;3.28;;;;;;;;;;6106669;23;20413;-87
2023/12/29 10:53:56;;;;;;;11.65;3.80;;;;;;;;;;6038012;23;20468;-86
2023/12/29 10:56:29;;;;;;;14.75;3.10;;;;;;;;;;6018329;23;20076;-87
2023/12/29 10:59:05;;;;;;;15.00;3.42;;;;;;;;;;6106889;23;20013;-87
2023/12/29 11:01:43;;;;;;;10.73;3.08;;;;;;;;;;6107111;23;20017;-87
2023/12/29 11:04:27;;;;;;;17.65;3.45;;;;;;;;;;6106431;23;20076;-86
2023/12/29 11:06:55;;;;;;;17.45;3.05;;;;;;;;;;6105016;23;20018;-87
2023/12/29 11:09:41;;;;;;;10.90;3.05;;;;;;;;;;6106214;23;20063;-86
2023/12/29 11:12:20;;;;;;;;;;;;;;;;;;;;;
2023/12/29 11:14:50;;;;;;;8.27;3.33;;;;;;;;;;6123545;23;20021;-86
2023/12/29 11:17:25;;;;;;;12.52;2.90;;;;;;;;;;6105106;23;20022;-86
2023/12/29 11:23:47;;;;;;;12.93;4.15;;;;;;;;;;6157097;23;20522;-86
2023/12/29 11:26:21;;;;;;;13.68;3.92;;;;;;;;;;6092186;23;20113;-86
2023/12/29 11:28:53;;;;;;;11.70;3.83;;;;;;;;;;6106249;23;20469;-86
2023/12/29 11:31:40;;;;;;;13.90;2.83;;;;;;;;;;6106487;23;20014;-86
2023/12/29 11:34:27;;;;;;;11.35;3.70;;;;;;;;;;6104933;23;20053;-87
2023/12/29 11:37:10;;;;;;;;;;;;;;;;;;;;;
2023/12/29 11:40:03;;;;;;;12.77;2.75;;;;;;;;;;6133353;23;20013;-86
2023/12/29 11:42:45;;;;;;;;;;;;;;;;;;;;;
2023/12/29 11:45:35;;;;;;;13.52;3.05;;;;;;;;;;6130042;23;20061;-87
2023/12/29 11:48:05;;;;;;;9.00;2.78;;;;;;;;;;6106221;23;20049;-87
2023/12/29 11:50:36;;;;;;;14.60;3.35;;;;;;;;;;6105451;23;20395;-86
2023/12/29 11:53:06;;;;;;;18.35;3.10;;;;;;;;;;6105800;23;20085;-85
2023/12/29 11:55:36;;;;;;;10.60;3.00;;;;;;;;;;6105090;23;20017;-85
2023/12/29 11:58:22;;;;;;;12.55;3.13;;;;;;;;;;6106863;23;20100;-85
2023/12/29 12:00:49;;;;;;;11.57;3.20;;;;;;;;;;6104788;23;20022;-85
2023/12/29 12:03:29;;;;;;;14.90;3.53;;;;;;;;;;6105356;23;20036;-85
2023/12/29 12:06:02;;;;;;;12.60;3.30;;;;;;;;;;6105943;23;20028;-85
2023/12/29 12:08:29;;;;;;;15.43;3.13;;;;;;;;;;6106127;23;20068;-85
2023/12/29 12:10:56;;;;;;;17.13;3.83;;;;;;;;;;6106150;23;20023;-85
2023/12/29 12:13:41;;;;;;;11.77;3.20;;;;;;;;;;6105989;23;20368;-85
2023/12/29 12:16:07;;;;;;;15.52;3.35;;;;;;;;;;6105364;23;20156;-85
2023/12/29 12:18:34;;;;;;;12.65;3.33;;;;;;;;;;6104956;23;20295;-85
2023/12/29 12:21:01;;;;;;;12.63;2.80;;;;;;;;;;6104938;23;20525;-85
2023/12/29 12:23:29;;;;;;;13.20;4.05;;;;;;;;;;6105428;23;20024;-85
2023/12/29 12:26:01;;;;;;;9.93;2.92;;;;;;;;;;6104682;23;20092;-84
2023/12/29 12:28:29;;;;;;;13.27;3.10;;;;;;;;;;6105945;23;20024;-84
2023/12/29 12:31:06;;;;;;;10.98;3.25;;;;;;;;;;6106575;23;20018;-85
2023/12/29 12:33:37;;;;;;;14.32;3.08;;;;;;;;;;6106772;23;20072;-84
2023/12/29 12:36:08;;;;;;;16.05;4.10;;;;;;;;;;6106141;23;20021;-84
2023/12/29 12:38:34;;;;;;;12.23;3.58;;;;;;;;;;6105889;23;20021;-85
2023/12/29 12:41:12;;;;;;;11.43;3.38;;;;;;;;;;6106445;23;20018;-84
2023/12/29 12:43:44;;;;;;;17.27;3.10;;;;;;;;;;6106133;23;20022;-85
2023/12/29 12:46:10;;;;;;;15.50;3.97;;;;;;;;;;6106727;23;20129;-84
2023/12/29 12:48:40;;;;;;;10.63;3.10;;;;;;;;;;6105972;23;20022;-84
2023/12/29 12:51:07;;;;;;;13.30;3.65;;;;;;;;;;6106113;23;20451;-85
2023/12/29 12:53:33;;;;;;;14.60;3.42;;;;;;;;;;6105727;23;20017;-85
2023/12/29 12:55:59;;;;;;;15.02;3.97;;;;;;;;;;6106566;23;20025;-85
2023/12/29 12:58:40;;;;;;;17.90;4.15;;;;;;;;;;6105017;23;20052;-87
2023/12/29 13:01:07;;;;;;;16.17;4.10;;;;;;;;;;6105945;23;20121;-84
2023/12/29 13:03:33;;;;;;;15.70;3.75;;;;;;;;;;6108014;23;20021;-85
2023/12/29 13:06:01;;;;;;;15.95;4.13;;;;;;;;;;6125477;23;20025;-85
2023/12/29 13:08:30;;;;;;;15.18;3.53;;;;;;;;;;6126019;23;20021;-86
2023/12/29 13:14:32;;;;;;;11.52;3.45;;;;;;;;;;6114963;23;20470;-86
2023/12/29 13:20:30;;;;;;;9.02;3.83;;;;;;;;;;6001449;23;20108;-85
2023/12/29 13:23:28;;;;;;;13.45;3.97;;;;;;;;;;6104707;23;20466;-86
2023/12/29 13:25:58;;;;;;;13.75;3.92;;;;;;;;;;6105343;23;20040;-85
2023/12/29 13:28:24;;;;;;;14.63;3.80;;;;;;;;;;6105246;23;20013;-85
2023/12/29 13:30:53;;;;;;;22.08;4.32;;;;;;;;;;6104256;23;20013;-85
2023/12/29 13:33:25;;;;;;;18.88;4.30;;;;;;;;;;6104783;23;20014;-85
2023/12/29 13:35:59;;;;;;;15.60;4.23;;;;;;;;;;6104897;23;20073;-85
2023/12/29 13:38:29;;;;;;;21.27;4.22;;;;;;;;;;6105596;23;20018;-84
2023/12/29 13:41:07;;;;;;;22.60;4.25;;;;;;;;;;6103599;23;20459;-85
2023/12/29 13:43:42;;;;;;;17.33;4.43;;;;;;;;;;6104881;23;20018;-86
2023/12/29 13:49:49;;;;;;;13.68;3.53;;;;;;;;;;6012109;23;20038;-86
2023/12/29 13:56:12;;;;;;;15.68;3.83;;;;;;;;;;6129702;23;20085;-85
2023/12/29 13:58:38;;;;;;;14.00;4.75;;;;;;;;;;6104179;23;20024;-86
2023/12/29 14:01:14;;;;;;;15.35;4.22;;;;;;;;;;6104675;23;20025;-86
2023/12/29 14:03:44;;;;;;;16.35;4.40;;;;;;;;;;6103999;23;20022;-87
2023/12/29 14:06:14;;;;;;;14.57;3.47;;;;;;;;;;6104673;23;20092;-86
2023/12/29 14:08:41;;;;;;;12.75;4.35;;;;;;;;;;6104672;23;20020;-86
2023/12/29 14:11:10;;;;;;;15.80;4.13;;;;;;;;;;6106222;23;20080;-87
2023/12/29 14:13:47;;;;;;;17.40;3.63;;;;;;;;;;6106057;23;20104;-86
2023/12/29 14:16:20;;;;;;;14.35;3.85;;;;;;;;;;6106450;23;20071;-86
2023/12/29 14:18:53;;;;;;;14.90;4.30;;;;;;;;;;6106832;23;20020;-86
2023/12/29 14:21:34;;;;;;;19.38;5.18;;;;;;;;;;6105977;23;20341;-86
2023/12/29 14:24:04;;;;;;;15.80;4.05;;;;;;;;;;6106485;23;20017;-86
2023/12/29 14:26:30;;;;;;;20.35;5.00;;;;;;;;;;6105890;23;20013;-86
2023/12/29 14:29:00;;;;;;;14.80;4.05;;;;;;;;;;6106280;23;20506;-86
2023/12/29 14:31:30;;;;;;;17.58;4.13;;;;;;;;;;6106230;23;20461;-86
2023/12/29 14:33:56;;;;;;;13.05;3.45;;;;;;;;;;6105994;23;20058;-86
2023/12/29 14:36:22;;;;;;;14.35;3.95;;;;;;;;;;6105734;23;20025;-86
2023/12/29 14:38:48;;;;;;;16.73;4.15;;;;;;;;;;6106639;23;20024;-86
2023/12/29 14:41:15;;;;;;;14.57;3.38;;;;;;;;;;6105430;23;20152;-86
2023/12/29 14:43:43;;;;;;;15.68;3.45;;;;;;;;;;6106298;23;20017;-86
2023/12/29 14:46:12;;;;;;;15.55;3.72;;;;;;;;;;6105647;23;20018;-86
2023/12/29 14:48:41;;;;;;;8.43;3.20;;;;;;;;;;6105181;23;20136;-86
2023/12/29 14:51:07;;;;;;;13.90;2.90;;;;;;;;;;6105441;23;20056;-86
2023/12/29 14:53:34;;;;;;;14.55;3.33;;;;;;;;;;6106187;23;20026;-86
2023/12/29 14:56:00;;;;;;;16.77;3.42;;;;;;;;;;6105796;23;20040;-86
2023/12/29 14:58:39;;;;;;;12.75;3.60;;;;;;;;;;6106423;23;20024;-85
2023/12/29 15:01:10;;;;;;;15.70;3.47;;;;;;;;;;6105984;23;20025;-84
2023/12/29 15:03:50;;;;;;;19.38;4.38;;;;;;;;;;6105408;23;20014;-85
2023/12/29 15:06:20;;;;;;;16.88;5.47;;;;;;;;;;6106019;23;20014;-85
2023/12/29 15:08:57;;;;;;;16.85;5.03;;;;;;;;;;6105778;23;20422;-85
2023/12/29 15:11:29;;;;;;;12.38;3.92;;;;;;;;;;6104784;23;20409;-84
2023/12/29 15:14:02;;;;;;;13.43;3.53;;;;;;;;;;6106170;23;20390;-84
2023/12/29 15:16:46;;;;;;;17.80;4.40;;;;;;;;;;6108403;23;20049;-84
2023/12/29 15:19:33;;;;;;;13.40;3.67;;;;;;;;;;6106165;23;20029;-85
2023/12/29 15:22:26;;;;;;;;;;;;;;;;;;;;;
2023/12/29 15:24:58;;;;;;;13.10;4.57;;;;;;;;;;6130036;23;20170;-85
2023/12/29 15:27:36;;;;;;;12.90;3.67;;;;;;;;;;6105484;23;20041;-86
2023/12/29 15:30:19;;;;;;;13.77;4.20;;;;;;;;;;6105617;23;20025;-85
2023/12/29 15:33:00;;;;;;;9.25;3.00;;;;;;;;;;6128563;23;20037;-87
2023/12/29 15:35:26;;;;;;;21.02;4.75;;;;;;;;;;6105811;23;20447;-86
2023/12/29 15:38:00;;;;;;;10.32;3.80;;;;;;;;;;6104127;23;20101;-88
2023/12/29 15:40:26;;;;;;;16.40;4.00;;;;;;;;;;6105686;23;20096;-86
2023/12/29 15:42:52;;;;;;;14.82;3.78;;;;;;;;;;6105267;23;20125;-87
2023/12/29 15:45:21;;;;;;;15.00;4.28;;;;;;;;;;6105673;23;20017;-86
2023/12/29 15:47:48;;;;;;;9.95;3.00;;;;;;;;;;6105331;23;20407;-86
2023/12/29 15:50:14;;;;;;;9.73;3.35;;;;;;;;;;6105479;23;20386;-86
2023/12/29 15:52:41;;;;;;;14.95;3.25;;;;;;;;;;6104971;23;20045;-87
2023/12/29 15:55:07;;;;;;;13.20;3.40;;;;;;;;;;6105065;23;20021;-86
2023/12/29 15:57:34;;;;;;;11.35;3.55;;;;;;;;;;6104941;23;20427;-86
2023/12/29 16:00:00;;;;;;;14.80;3.53;;;;;;;;;;6104933;23;20102;-86
2023/12/29 16:02:29;;;;;;;11.50;3.33;;;;;;;;;;6104570;23;20017;-86
2023/12/29 16:05:02;;;;;;;12.25;3.95;;;;;;;;;;6106794;23;20028;-86
2023/12/29 16:07:31;;;;;;;17.35;4.13;;;;;;;;;;6128150;23;20049;-86
2023/12/29 16:09:57;;;;;;;12.85;3.85;;;;;;;;;;6105584;23;20017;-88
2023/12/29 16:12:23;;;;;;;15.73;3.92;;;;;;;;;;6105110;23;20097;-86
2023/12/29 16:14:49;;;;;;;17.00;4.05;;;;;;;;;;6104780;23;20071;-86
2023/12/29 16:17:15;;;;;;;18.25;3.85;;;;;;;;;;6105022;23;20014;-86